Time;durP1;ratioP1;P1;durP2;ratioP2;P2;SDS_P1;SDS_P2;PMS_P1;PMS_P2;Temp;Humidity;BMP_temperature;BMP_pressure;BME280_temperature;BME280_humidity;BME280_pressure;Samples;Min_cycle;Max_cycle;Signal;HPM_P1;HPM_P2
2021/11/22 05:44:54;;;;;;;30.32;17.35;;;;;;;3.93;91.56;99720.16;1649438;85;21121;-47
2021/11/22 05:47:29;;;;;;;30.10;18.57;;;;;;;3.97;91.55;99731.02;1611083;88;21164;-48
2021/11/22 05:50:06;;;;;;;30.05;16.70;;;;;;;4.02;91.10;99732.41;1623941;87;21132;-47
2021/11/22 05:52:38;;;;;;;36.80;18.07;;;;;;;4.06;90.97;99738.48;1593400;86;21041;-44
2021/11/22 05:55:14;;;;;;;38.60;20.72;;;;;;;4.07;90.74;99744.14;1617588;87;21072;-48
2021/11/22 05:57:40;;;;;;;34.85;19.70;;;;;;;4.10;90.74;99746.77;1612916;88;21189;-48
2021/11/22 06:00:10;;;;;;;29.92;18.07;;;;;;;4.15;91.19;99746.42;1612639;87;21436;-44
2021/11/22 06:03:10;;;;;;;31.50;18.25;;;;;;;4.21;91.50;99748.69;1603280;89;21094;-44
2021/11/22 06:08:57;;;;;;;23.75;16.23;;;;;;;4.39;91.90;99751.13;1574959;87;21040;-49
2021/11/22 06:11:43;;;;;;;24.87;16.97;;;;;;;4.45;91.67;99754.69;1602178;87;21592;-47
2021/11/22 06:14:28;;;;;;;27.42;15.65;;;;;;;4.48;91.32;99759.06;1599898;87;21101;-50
2021/11/22 06:17:41;;;;;;;28.90;17.40;;;;;;;4.49;91.11;99760.38;1603321;86;22090;-43
2021/11/22 06:43:26;;;;;;;27.98;19.55;;;;;;;4.67;90.88;99775.34;1566621;90;21563;-47
2021/11/22 06:46:50;;;;;;;28.20;18.12;;;;;;;4.68;91.11;99777.50;1546337;91;21630;-47
2021/11/22 07:02:37;;;;;;;28.62;18.98;;;;;;;4.79;93.42;99780.70;1477174;95;22186;-48
2021/11/22 07:05:11;;;;;;;26.05;19.20;;;;;;;4.97;93.53;99777.94;1473214;95;22291;-45
2021/11/22 07:07:51;;;;;;;29.35;19.50;;;;;;;5.10;93.08;99781.56;1475806;95;21995;-46
2021/11/22 07:26:43;;;;;;;33.40;20.30;;;;;;;5.82;90.71;99780.75;1488519;94;21186;-47
2021/11/22 07:37:55;;;;;;;28.55;18.70;;;;;;;6.12;89.79;99786.28;1631698;86;21080;-48
2021/11/22 07:41:04;;;;;;;26.15;17.62;;;;;;;6.34;88.54;99795.16;1583239;87;21072;-48
2021/11/22 07:47:39;;;;;;;25.17;18.20;;;;;;;6.49;87.18;99791.80;1608872;87;21250;-48
2021/11/22 07:50:36;;;;;;;26.48;17.25;;;;;;;6.52;86.56;99795.75;1609511;87;21068;31
2021/11/22 07:53:31;;;;;;;25.95;17.12;;;;;;;6.58;86.60;99792.33;1525305;90;21264;-45
2021/11/22 07:56:07;;;;;;;24.98;16.77;;;;;;;6.65;85.96;99796.71;1506649;91;21182;-45
2021/11/22 07:59:08;;;;;;;21.68;15.78;;;;;;;6.65;85.85;99795.41;1486412;92;21125;-45
2021/11/22 08:02:49;;;;;;;27.22;18.27;;;;;;;6.71;85.84;99800.66;1523844;92;21101;-46
2021/11/22 08:34:13;;;;;;;35.63;18.90;;;;;;;7.81;81.99;99803.87;1510208;94;21112;-44
2021/11/22 08:37:25;;;;;;;30.82;18.92;;;;;;;7.94;81.41;99799.16;1491525;94;21149;-46
2021/11/22 09:14:50;;;;;;;24.92;15.28;;;;;;;9.45;77.95;99809.13;1593605;88;21527;-48
2021/11/22 09:45:49;;;;;;;16.90;11.03;;;;;;;10.49;69.91;99796.41;1545652;87;21215;31
2021/11/22 09:52:26;;;;;;;18.57;11.50;;;;;;;10.60;68.72;99791.10;1561135;90;21618;-45
2021/11/22 09:55:40;;;;;;;17.35;10.93;;;;;;;10.86;68.42;99785.22;1540671;91;21974;-48
2021/11/22 09:59:16;;;;;;;16.35;11.88;;;;;;;11.15;66.94;99800.64;1612742;87;21043;-47
2021/11/22 10:05:36;;;;;;;16.20;12.05;;;;;;;12.12;63.68;99791.20;1597628;87;21480;-45
2021/11/22 10:16:34;;;;;;;25.20;15.40;;;;;;;13.37;58.84;99787.37;1568584;90;21246;-44
2021/11/22 10:35:22;;;;;;;10.82;8.25;;;;;;;13.08;59.74;99795.31;1658185;85;21396;-46
2021/11/22 10:39:21;;;;;;;11.22;8.55;;;;;;;12.87;59.15;99799.20;1652758;85;21132;-47
2021/11/22 10:49:28;;;;;;;10.63;8.05;;;;;;;11.65;62.85;99803.14;1562601;87;22394;-47
2021/11/22 10:59:17;;;;;;;11.40;7.67;;;;;;;11.02;65.95;99787.25;1628160;82;22457;31
2021/11/22 11:26:49;;;;;;;15.83;9.75;;;;;;;10.28;69.28;99793.97;1630215;86;21109;-51
2021/11/22 11:37:56;;;;;;;13.00;9.68;;;;;;;10.06;69.94;99789.27;1624204;87;21171;-48
2021/11/22 11:41:33;;;;;;;11.78;8.90;;;;;;;9.94;70.69;99795.88;1615423;87;21137;-48
2021/11/22 11:52:00;;;;;;;15.78;9.60;;;;;;;9.76;72.51;99800.32;1611314;87;21194;-52
2021/11/22 11:54:47;;;;;;;19.37;11.53;;;;;;;9.76;72.61;99801.63;1609068;87;21526;-47
2021/11/22 11:57:27;;;;;;;14.13;10.68;;;;;;;9.72;72.82;99805.12;1547972;88;21620;-45
2021/11/22 12:00:38;;;;;;;14.87;11.48;;;;;;;9.70;72.65;99808.63;1614891;85;21397;-50
2021/11/22 12:03:16;;;;;;;16.02;11.05;;;;;;;9.66;72.41;99809.06;1632050;85;22005;-49
2021/11/22 12:10:46;;;;;;;16.55;11.60;;;;;;;9.57;72.91;99815.65;1622283;86;21120;-48
2021/11/22 12:18:41;;;;;;;16.30;11.28;;;;;;;9.51;73.21;99824.81;1614829;88;21690;-49
2021/11/22 12:21:56;;;;;;;19.05;12.30;;;;;;;9.45;73.18;99824.39;1583808;88;21924;-47
2021/11/22 12:25:57;;;;;;;16.27;11.38;;;;;;;9.38;73.47;99825.70;1587075;89;21116;-47
2021/11/22 12:32:47;;;;;;;15.08;10.63;;;;;;;9.25;73.77;99821.81;1574761;89;21151;-47
2021/11/22 12:35:53;;;;;;;16.17;10.95;;;;;;;9.22;73.76;99827.46;1573484;89;21506;-46
2021/11/22 12:42:59;;;;;;;19.95;11.33;;;;;;;9.24;74.12;99830.96;1573192;89;21141;-47
2021/11/22 13:02:31;;;;;;;27.93;13.50;;;;;;;9.38;73.23;99843.53;1617674;83;21599;-50
2021/11/22 13:06:16;;;;;;;22.67;14.28;;;;;;;9.35;73.47;99852.70;1687670;82;21547;-50
2021/11/22 13:13:30;;;;;;;21.90;14.10;;;;;;;9.24;73.21;99863.59;1704754;81;21705;-46
2021/11/22 13:16:16;;;;;;;22.35;13.75;;;;;;;9.14;73.55;99865.33;1664012;83;21591;-50
2021/11/22 13:23:49;;;;;;;21.20;13.20;;;;;;;9.11;73.88;99861.88;1627350;86;21124;-56
2021/11/22 13:34:41;;;;;;;21.82;14.68;;;;;;;9.05;74.19;99864.05;1508612;94;21450;-55
2021/11/22 13:37:23;;;;;;;22.70;13.80;;;;;;;8.99;74.57;99866.67;1490277;94;21164;-50
2021/11/22 13:39:58;;;;;;;33.00;16.93;;;;;;;8.95;74.68;99866.22;1486712;94;22481;-49
2021/11/22 13:42:25;;;;;;;27.98;17.65;;;;;;;8.90;74.96;99870.56;1508549;94;21129;-46
2021/11/22 13:44:59;;;;;;;26.30;17.00;;;;;;;8.85;75.17;99879.69;1510749;94;21110;-47
2021/11/22 13:47:29;;;;;;;24.02;14.50;;;;;;;8.83;75.25;99884.48;1473356;94;21123;-44
2021/11/22 13:50:01;;;;;;;26.05;14.15;;;;;;;8.80;75.31;99890.55;1486982;95;21094;-46
2021/11/22 13:52:31;;;;;;;21.42;13.45;;;;;;;8.80;75.34;99893.16;1516628;94;21104;-43
2021/11/22 13:54:59;;;;;;;22.27;14.75;;;;;;;8.77;75.48;99894.05;1486730;95;21080;-48
2021/11/22 13:57:32;;;;;;;27.25;14.87;;;;;;;8.74;75.48;99899.68;1480757;92;21135;-47
2021/11/22 14:00:04;;;;;;;;;;;;;;;8.70;75.76;99900.13;1539484;91;21128;-45
2021/11/22 14:02:38;;;;;;;21.02;14.95;;;;;;;8.66;76.01;99895.77;1568911;87;20114;-46
2021/11/22 14:05:09;;;;;;;40.30;19.42;;;;;;;8.63;76.24;99902.70;1589875;89;21592;-48
2021/11/22 14:07:47;;;;;;;55.55;28.17;;;;;;;8.60;76.36;99907.93;1572987;85;21146;-49
2021/11/22 14:10:32;;;;;;;34.70;18.30;;;;;;;8.55;76.62;99909.22;1688133;83;21064;-47
2021/11/22 14:13:14;;;;;;;24.85;17.23;;;;;;;8.49;77.01;99910.08;1715261;82;21097;-45
2021/11/22 14:15:44;;;;;;;33.80;22.27;;;;;;;8.44;77.29;99911.80;1672026;82;21096;-45
2021/11/22 14:18:18;;;;;;;33.38;22.17;;;;;;;8.40;77.49;99918.30;1717571;82;20961;-47
2021/11/22 14:20:51;;;;;;;;;;;;;;;8.36;77.80;99920.05;1704554;82;21254;-48
2021/11/22 14:23:30;;;;;;;48.15;30.88;;;;;;;8.31;78.13;99922.16;1600538;84;20155;-48
2021/11/22 14:26:01;;;;;;;35.03;25.35;;;;;;;8.23;78.41;99921.71;1643923;85;21699;-46
2021/11/22 14:28:29;;;;;;;28.25;19.02;;;;;;;8.17;78.65;99924.27;1652700;85;21014;-45
2021/11/22 14:31:02;;;;;;;45.35;27.60;;;;;;;8.09;78.98;99923.81;1677176;83;21041;-48
2021/11/22 14:33:29;;;;;;;66.40;37.38;;;;;;;8.00;79.25;99930.73;1643905;85;20981;-46
2021/11/22 14:36:05;;;;;;;50.95;30.70;;;;;;;7.94;79.50;99937.63;1665532;84;21106;-45
2021/11/22 14:39:03;;;;;;;40.55;24.50;;;;;;;7.86;79.72;99939.33;1672490;84;21537;-48
2021/11/22 14:41:43;;;;;;;26.00;16.87;;;;;;;7.77;79.88;99940.57;1658808;81;21062;-45
2021/11/22 14:44:19;;;;;;;31.10;18.48;;;;;;;7.68;80.08;99941.41;1646599;85;21062;-45
2021/11/22 14:47:02;;;;;;;37.73;21.77;;;;;;;7.63;80.33;99943.10;1617051;86;21136;-45
2021/11/22 14:49:40;;;;;;;46.80;24.02;;;;;;;7.55;80.66;99950.00;1630425;85;20998;-45
2021/11/22 14:52:21;;;;;;;55.92;29.50;;;;;;;7.49;81.03;99957.34;1639976;86;21561;-45
2021/11/22 14:54:51;;;;;;;50.03;26.05;;;;;;;7.45;81.48;99952.97;1650617;86;21448;-44
2021/11/22 14:57:28;;;;;;;60.05;34.13;;;;;;;7.40;81.85;99951.62;1651609;85;21492;-48
2021/11/22 15:00:00;;;;;;;57.20;34.18;;;;;;;7.36;82.17;99959.39;1620449;86;21031;-48
2021/11/22 15:02:28;;;;;;;52.48;30.52;;;;;;;7.33;82.50;99965.45;1640185;87;21578;-45
2021/11/22 15:05:00;;;;;;;45.78;28.07;;;;;;;7.30;82.80;99971.92;1611107;86;21020;-48
2021/11/22 15:07:28;;;;;;;43.20;26.95;;;;;;;7.27;83.02;99972.34;1639061;86;21048;-48
2021/11/22 15:10:33;;;;;;;60.12;33.48;;;;;;;7.24;83.23;99971.88;1632679;86;21437;-45
2021/11/22 15:13:14;;;;;;;115.42;57.53;;;;;;;7.21;83.41;99979.67;1658311;85;21076;-45
2021/11/22 15:15:45;;;;;;;124.82;62.27;;;;;;;7.18;83.57;99976.59;1635745;85;21140;-48
2021/11/22 15:18:14;;;;;;;56.45;31.45;;;;;;;7.15;83.66;99979.19;1590137;86;21061;-45
2021/11/22 15:20:53;;;;;;;39.88;23.02;;;;;;;7.10;83.86;99980.88;1630451;86;21064;-44
2021/11/22 15:23:35;;;;;;;32.70;22.37;;;;;;;7.07;84.14;99991.23;1611074;87;21090;-45
2021/11/22 15:26:06;;;;;;;29.52;17.45;;;;;;;7.04;84.38;99992.95;1642129;86;21084;-44
2021/11/22 15:28:33;;;;;;;23.18;16.00;;;;;;;7.01;84.52;99991.61;1619776;88;21554;-44
2021/11/22 15:31:02;;;;;;;21.23;16.25;;;;;;;6.97;84.72;99995.93;1574948;89;21606;-47
2021/11/22 15:33:30;;;;;;;25.02;17.25;;;;;;;6.93;84.94;99991.55;1561776;89;20991;-44
2021/11/22 15:35:58;;;;;;;22.95;15.80;;;;;;;6.91;84.99;99990.24;1548692;90;21178;-44
2021/11/22 15:38:28;;;;;;;22.87;15.35;;;;;;;6.89;85.00;100004.94;1585113;87;21500;-47
2021/11/22 15:40:56;;;;;;;25.90;16.32;;;;;;;6.86;84.98;100004.92;1608948;88;21085;-47
2021/11/22 15:43:27;;;;;;;25.97;15.88;;;;;;;6.81;85.01;100001.83;1640072;86;21089;-47
2021/11/22 15:45:54;;;;;;;23.35;15.75;;;;;;;6.75;85.01;100002.64;1657393;85;21596;-46
2021/11/22 15:48:22;;;;;;;26.23;16.05;;;;;;;6.70;85.04;100008.20;1614155;86;21041;-44
2021/11/22 15:50:50;;;;;;;29.92;20.23;;;;;;;6.64;85.06;100002.52;1607147;88;21181;-47
2021/11/22 15:53:22;;;;;;;29.40;16.82;;;;;;;6.61;85.10;100006.39;1606457;89;21128;-44
